Ana Sayfa
METAR-TAF:

METAR-TAF

Havaalanları :

Şanghay Pudong Uluslararası Havalimanı

Şanghay-Pudong, Çin

Enlem: 31-07N, Boylam: 121-46E, yükseklik: 4 m

Güncel hava durumu gözlemi

Rapor saat 07:00 UTC de 23 dakika önce yapıldı.
Rüzgar kuzey/kuzeydoğudan 6 kt, kuzey/kuzeybatı ve doğu/kuzeydoğu arasında değişken
Sıcaklık 25°C
Nem 39%
Basınç 1013 hPa
Görüş mesafesi 10 km veya daha fazla
1500 m altında bulut yok ve kümülonimbus yok

METAR: ZSPD 230700Z 02003MPS 340V070 CAVOK 25/10 Q1013 NOSIG

Saat: 15:23 (07:23 UTC)

Tahmin

Rapor saat 03:21 UTC de 4 saat ve 2 dakika önce yapıldı.
Ayın 23'si saat 06 UTC'den ayın 24'si saat 06 UTC'ye kadar geçerli Tahmin
Rüzgar kuzey/kuzeydoğudan 12 kt
Görüş mesafesi: 6000 m
2000 ft yükseklikte parçalı bulutlu
Dönüşüyor
ayın 23'si saat 10 UTC'den ayın 23'si saat 11 UTC'ye kadar
Rüzgar güney/güneydoğudan 8 kt

TAF: ZSPD 230321Z 2306/2406 03006MPS 6000 SCT020 TX27/2306Z TN17/2321Z BECMG 2310/2311 15004MPS

4.000'den fazla havaalanı için hava durumu gözlemleri ve tahminleri (METAR ve TAF raporları).

Kullanılabilir istasyonlar harita üzerinde sarı ve kırmızı noktalarla gösterilir.

İstasyonun adını görmek için fareyi noktanın üzerinde gezdirin.

Sonrasında hava gözlem ve tahminlerini görmek için tıklayın.

Haritayı değiştirmek için: yaklaştırmak için siyah artı işaretli yeşil düğmeye ve uzaklaştırmak için de eksi işaretli düğmeye hızla tıklayın; bitişik haritalar için yeşil okları kullanın.


METAR-TAF: